sensor_id;sensor_type;location;lat;lon;timestamp;pressure;altitude;pressure_sealevel;temperature;humidity
50592;BME280;36548;50.506;30.834;2022-08-01T00:01:03;99629.97;;;21.92;53.31
50592;BME280;36548;50.506;30.834;2022-08-01T00:02:31;99621.96;;;21.91;53.44
50592;BME280;36548;50.506;30.834;2022-08-01T00:03:46;99622.22;;;21.96;53.59
50592;BME280;36548;50.506;30.834;2022-08-01T00:04:56;99634.84;;;21.82;53.78
50592;BME280;36548;50.506;30.834;2022-08-01T00:06:11;99626.40;;;21.92;53.82
50592;BME280;36548;50.506;30.834;2022-08-01T00:07:20;99630.44;;;21.81;53.80
50592;BME280;36548;50.506;30.834;2022-08-01T00:08:36;99616.88;;;21.88;53.89
50592;BME280;36548;50.506;30.834;2022-08-01T00:09:45;99623.47;;;21.78;53.88
50592;BME280;36548;50.506;30.834;2022-08-01T00:11:02;99628.27;;;21.91;53.82
50592;BME280;36548;50.506;30.834;2022-08-01T00:12:11;99629.57;;;21.80;53.80
50592;BME280;36548;50.506;30.834;2022-08-01T00:13:29;99624.69;;;21.91;53.85
50592;BME280;36548;50.506;30.834;2022-08-01T00:14:38;99627.22;;;21.77;53.94
50592;BME280;36548;50.506;30.834;2022-08-01T00:16:05;99619.86;;;21.78;53.84
50592;BME280;36548;50.506;30.834;2022-08-01T00:17:20;99617.05;;;21.86;53.87
50592;BME280;36548;50.506;30.834;2022-08-01T00:18:30;99624.19;;;21.72;54.07
50592;BME280;36548;50.506;30.834;2022-08-01T00:19:54;99620.54;;;21.80;54.16
50592;BME280;36548;50.506;30.834;2022-08-01T00:21:04;99628.17;;;21.70;54.10
50592;BME280;36548;50.506;30.834;2022-08-01T00:22:13;99615.36;;;21.70;54.15
50592;BME280;36548;50.506;30.834;2022-08-01T00:23:28;99617.42;;;21.83;54.06
50592;BME280;36548;50.506;30.834;2022-08-01T00:24:38;99622.14;;;21.74;53.98
50592;BME280;36548;50.506;30.834;2022-08-01T00:25:54;99617.42;;;21.83;54.04
50592;BME280;36548;50.506;30.834;2022-08-01T00:27:03;99623.36;;;21.72;54.07
50592;BME280;36548;50.506;30.834;2022-08-01T00:28:18;99617.81;;;21.80;54.14
50592;BME280;36548;50.506;30.834;2022-08-01T00:29:29;99625.98;;;21.65;54.26
50592;BME280;36548;50.506;30.834;2022-08-01T00:30:44;99622.52;;;21.71;54.37
50592;BME280;36548;50.506;30.834;2022-08-01T00:32:01;99622.88;;;21.53;54.65
50592;BME280;36548;50.506;30.834;2022-08-01T00:33:10;99625.23;;;21.56;54.58
50592;BME280;36548;50.506;30.834;2022-08-01T00:34:20;99622.50;;;21.56;54.53
50592;BME280;36548;50.506;30.834;2022-08-01T00:35:36;99619.98;;;21.70;54.42
50592;BME280;36548;50.506;30.834;2022-08-01T00:36:45;99611.77;;;21.55;54.54
50592;BME280;36548;50.506;30.834;2022-08-01T00:38:01;99614.03;;;21.66;54.51
50592;BME280;36548;50.506;30.834;2022-08-01T00:39:10;99617.04;;;21.56;54.46
50592;BME280;36548;50.506;30.834;2022-08-01T00:40:37;99616.66;;;21.59;54.38
50592;BME280;36548;50.506;30.834;2022-08-01T00:41:53;99612.81;;;21.69;54.37
50592;BME280;36548;50.506;30.834;2022-08-01T00:43:04;99610.17;;;21.60;54.28
50592;BME280;36548;50.506;30.834;2022-08-01T00:44:20;99613.45;;;21.71;54.25
50592;BME280;36548;50.506;30.834;2022-08-01T00:45:29;99615.52;;;21.54;54.45
50592;BME280;36548;50.506;30.834;2022-08-01T00:46:57;99608.01;;;21.56;54.47
50592;BME280;36548;50.506;30.834;2022-08-01T00:48:12;99609.41;;;21.67;54.43
50592;BME280;36548;50.506;30.834;2022-08-01T00:49:22;99606.16;;;21.48;54.55
50592;BME280;36548;50.506;30.834;2022-08-01T00:50:38;99605.55;;;21.61;54.71
50592;BME280;36548;50.506;30.834;2022-08-01T00:51:47;99606.66;;;21.52;54.52
50592;BME280;36548;50.506;30.834;2022-08-01T00:53:14;99604.59;;;21.54;54.47
50592;BME280;36548;50.506;30.834;2022-08-01T00:54:27;99606.66;;;21.52;54.48
50592;BME280;36548;50.506;30.834;2022-08-01T00:55:43;99604.52;;;21.62;54.49
50592;BME280;36548;50.506;30.834;2022-08-01T00:56:54;99603.63;;;21.46;54.54
50592;BME280;36548;50.506;30.834;2022-08-01T00:58:09;99608.01;;;21.56;54.65
50592;BME280;36548;50.506;30.834;2022-08-01T00:59:24;99602.75;;;21.46;54.65
50592;BME280;36548;50.506;30.834;2022-08-01T01:00:40;99592.45;;;21.56;54.63
50592;BME280;36548;50.506;30.834;2022-08-01T01:01:51;99597.67;;;21.43;54.67
50592;BME280;36548;50.506;30.834;2022-08-01T01:03:19;99602.48;;;21.41;54.74
50592;BME280;36548;50.506;30.834;2022-08-01T01:04:30;99596.16;;;21.40;54.76
50592;BME280;36548;50.506;30.834;2022-08-01T01:09:15;99601.69;;;21.32;54.89
50592;BME280;36548;50.506;30.834;2022-08-01T01:10:43;99607.27;;;21.39;55.10
50592;BME280;36548;50.506;30.834;2022-08-01T01:12:06;99602.26;;;21.27;55.07
50592;BME280;36548;50.506;30.834;2022-08-01T01:13:35;99606.39;;;21.23;55.20
50592;BME280;36548;50.506;30.834;2022-08-01T01:15:02;99598.23;;;21.38;55.06
50592;BME280;36548;50.506;30.834;2022-08-01T01:16:14;99603.09;;;21.28;55.01
50592;BME280;36548;50.506;30.834;2022-08-01T01:17:41;99600.13;;;21.38;55.00
50592;BME280;36548;50.506;30.834;2022-08-01T01:19:00;99611.47;;;21.26;55.07
50592;BME280;36548;50.506;30.834;2022-08-01T01:20:16;99603.09;;;21.28;55.35
50592;BME280;36548;50.506;30.834;2022-08-01T01:23:20;99612.29;;;21.12;55.43
50592;BME280;36548;50.506;30.834;2022-08-01T01:29:35;99608.67;;;20.97;55.98
50592;BME280;36548;50.506;30.834;2022-08-01T01:30:55;99609.13;;;21.00;56.13
50592;BME280;36548;50.506;30.834;2022-08-01T01:32:07;99603.64;;;20.85;56.20
50592;BME280;36548;50.506;30.834;2022-08-01T01:33:25;99605.81;;;20.90;56.50
50592;BME280;36548;50.506;30.834;2022-08-01T01:34:43;99614.23;;;20.80;56.48
50592;BME280;36548;50.506;30.834;2022-08-01T01:36:03;99610.44;;;20.89;56.48
50592;BME280;36548;50.506;30.834;2022-08-01T01:37:17;99613.55;;;20.78;56.39
50592;BME280;36548;50.506;30.834;2022-08-01T01:38:46;99617.52;;;20.75;56.54
50592;BME280;36548;50.506;30.834;2022-08-01T01:40:03;99608.41;;;20.83;56.59
50592;BME280;36548;50.506;30.834;2022-08-01T01:41:15;99610.55;;;20.73;56.68
50592;BME280;36548;50.506;30.834;2022-08-01T01:42:32;99609.44;;;20.82;56.64
50592;BME280;36548;50.506;30.834;2022-08-01T01:43:43;99611.56;;;20.72;56.70
50592;BME280;36548;50.506;30.834;2022-08-01T01:45:04;99603.83;;;20.84;56.75
50592;BME280;36548;50.506;30.834;2022-08-01T01:46:17;99611.70;;;20.78;56.65
50592;BME280;36548;50.506;30.834;2022-08-01T01:47:29;99611.52;;;20.80;56.40
50592;BME280;36548;50.506;30.834;2022-08-01T01:48:47;99610.62;;;20.88;56.41
50592;BME280;36548;50.506;30.834;2022-08-01T01:49:58;99617.02;;;20.72;56.53
50592;BME280;36548;50.506;30.834;2022-08-01T01:51:16;99604.48;;;20.86;56.58
50592;BME280;36548;50.506;30.834;2022-08-01T01:52:28;99611.38;;;20.73;56.38
50592;BME280;36548;50.506;30.834;2022-08-01T01:53:59;99612.41;;;20.72;56.61
50592;BME280;36548;50.506;30.834;2022-08-01T01:55:18;99612.34;;;20.81;56.50
50592;BME280;36548;50.506;30.834;2022-08-01T01:56:32;99620.12;;;20.69;56.71
50592;BME280;36548;50.506;30.834;2022-08-01T01:57:50;99606.80;;;20.74;56.63
50592;BME280;36548;50.506;30.834;2022-08-01T01:59:02;99616.20;;;20.63;56.81
50592;BME280;36548;50.506;30.834;2022-08-01T02:00:31;99614.68;;;20.60;56.78
50592;BME280;36548;50.506;30.834;2022-08-01T02:01:49;99608.19;;;20.70;56.65
50592;BME280;36548;50.506;30.834;2022-08-01T02:03:03;99618.61;;;20.58;56.73
50592;BME280;36548;50.506;30.834;2022-08-01T02:04:22;99612.42;;;20.64;56.89
50592;BME280;36548;50.506;30.834;2022-08-01T02:05:38;99617.09;;;20.55;56.89
50592;BME280;36548;50.506;30.834;2022-08-01T02:06:51;99618.61;;;20.58;56.84
50592;BME280;36548;50.506;30.834;2022-08-01T02:08:08;99614.81;;;20.67;56.72
50592;BME280;36548;50.506;30.834;2022-08-01T02:09:21;99623.09;;;20.51;56.84
50592;BME280;36548;50.506;30.834;2022-08-01T02:10:39;99615.00;;;20.66;56.87
50592;BME280;36548;50.506;30.834;2022-08-01T02:11:51;99624.80;;;20.52;56.72
50592;BME280;36548;50.506;30.834;2022-08-01T02:13:20;99625.63;;;20.52;56.79
50592;BME280;36548;50.506;30.834;2022-08-01T02:14:37;99617.88;;;20.64;56.75
50592;BME280;36548;50.506;30.834;2022-08-01T02:15:50;99625.45;;;20.54;56.64
50592;BME280;36548;50.506;30.834;2022-08-01T02:17:06;99614.66;;;20.69;56.45
50592;BME280;36548;50.506;30.834;2022-08-01T02:18:16;99611.11;;;20.60;56.17
50592;BME280;36548;50.506;30.834;2022-08-01T02:19:33;99611.75;;;20.70;55.88
50592;BME280;36548;50.506;30.834;2022-08-01T02:20:45;99618.06;;;20.63;56.05
50592;BME280;36548;50.506;30.834;2022-08-01T02:22:04;99608.28;;;20.76;55.62
50592;BME280;36548;50.506;30.834;2022-08-01T02:23:12;99611.06;;;20.68;55.42
50592;BME280;36548;50.506;30.834;2022-08-01T02:26:00;99606.38;;;20.85;55.15
50592;BME280;36548;50.506;30.834;2022-08-01T02:27:17;99611.52;;;20.80;55.38
50592;BME280;36548;50.506;30.834;2022-08-01T02:28:35;99606.59;;;20.99;54.87
50592;BME280;36548;50.506;30.834;2022-08-01T02:30:00;99613.16;;;20.89;54.53
50592;BME280;36548;50.506;30.834;2022-08-01T02:31:20;99601.81;;;21.01;54.56
50592;BME280;36548;50.506;30.834;2022-08-01T02:32:34;99609.04;;;20.93;54.60
50592;BME280;36548;50.506;30.834;2022-08-01T02:34:04;99608.17;;;20.93;54.30
50592;BME280;36548;50.506;30.834;2022-08-01T02:35:23;99599.86;;;21.09;53.84
50592;BME280;36548;50.506;30.834;2022-08-01T02:36:35;99599.55;;;21.04;53.52
50592;BME280;36548;50.506;30.834;2022-08-01T02:37:52;99593.49;;;21.17;53.73
50592;BME280;36548;50.506;30.834;2022-08-01T02:39:03;99600.73;;;21.10;53.70
50592;BME280;36548;50.506;30.834;2022-08-01T02:40:14;99607.33;;;21.16;53.72
50592;BME280;36548;50.506;30.834;2022-08-01T02:41:37;99588.98;;;21.24;53.60
50592;BME280;36548;50.506;30.834;2022-08-01T02:42:49;99602.13;;;21.06;53.67
50592;BME280;36548;50.506;30.834;2022-08-01T02:44:02;99596.66;;;21.06;53.88
50592;BME280;36548;50.506;30.834;2022-08-01T02:45:20;99593.38;;;21.10;53.66
50592;BME280;36548;50.506;30.834;2022-08-01T02:46:36;99598.34;;;21.07;53.63
50592;BME280;36548;50.506;30.834;2022-08-01T02:48:08;99593.84;;;21.14;53.13
50592;BME280;36548;50.506;30.834;2022-08-01T02:49:20;99602.40;;;21.11;53.11
50592;BME280;36548;50.506;30.834;2022-08-01T02:50:38;99594.63;;;21.23;52.99
50592;BME280;36548;50.506;30.834;2022-08-01T02:51:49;99595.54;;;21.15;53.17
50592;BME280;36548;50.506;30.834;2022-08-01T02:53:07;99592.73;;;21.23;52.68
50592;BME280;36548;50.506;30.834;2022-08-01T02:54:20;99597.44;;;21.15;52.90
50592;BME280;36548;50.506;30.834;2022-08-01T02:55:50;99601.19;;;21.14;52.73
50592;BME280;36548;50.506;30.834;2022-08-01T02:57:01;99599.14;;;21.16;52.77
50592;BME280;36548;50.506;30.834;2022-08-01T02:58:19;99595.20;;;21.33;52.73
50592;BME280;36548;50.506;30.834;2022-08-01T02:59:32;99607.26;;;21.24;52.59
50592;BME280;36548;50.506;30.834;2022-08-01T03:00:49;99595.51;;;21.38;52.61
50592;BME280;36548;50.506;30.834;2022-08-01T03:02:01;99612.61;;;21.32;52.71
50592;BME280;36548;50.506;30.834;2022-08-01T03:03:19;99602.94;;;21.44;52.60
50592;BME280;36548;50.506;30.834;2022-08-01T03:04:30;99603.20;;;21.35;52.64
50592;BME280;36548;50.506;30.834;2022-08-01T03:05:59;99601.69;;;21.32;52.45
50592;BME280;36548;50.506;30.834;2022-08-01T03:07:16;99608.78;;;21.41;52.24
50592;BME280;36548;50.506;30.834;2022-08-01T03:08:29;99609.88;;;21.32;51.97
50592;BME280;36548;50.506;30.834;2022-08-01T03:09:47;99605.21;;;21.41;52.18
50592;BME280;36548;50.506;30.834;2022-08-01T03:10:59;99608.67;;;21.35;52.46
50592;BME280;36548;50.506;30.834;2022-08-01T03:12:20;99607.38;;;21.45;52.07
50592;BME280;36548;50.506;30.834;2022-08-01T03:13:31;99608.48;;;21.36;52.31
50592;BME280;36548;50.506;30.834;2022-08-01T03:15:00;99605.75;;;21.36;52.05
50592;BME280;36548;50.506;30.834;2022-08-01T03:16:18;99593.91;;;21.44;51.82
50592;BME280;36548;50.506;30.834;2022-08-01T03:17:32;99609.05;;;21.32;51.73
50592;BME280;36548;50.506;30.834;2022-08-01T03:18:49;99612.84;;;21.45;51.69
50592;BME280;36548;50.506;30.834;2022-08-01T03:20:02;99607.27;;;21.39;52.11
50592;BME280;36548;50.506;30.834;2022-08-01T03:21:32;99612.37;;;21.42;51.92
50592;BME280;36548;50.506;30.834;2022-08-01T03:22:50;99610.17;;;21.60;52.18
50592;BME280;36548;50.506;30.834;2022-08-01T03:24:03;99615.14;;;21.57;52.00
50592;BME280;36548;50.506;30.834;2022-08-01T03:25:41;99615.55;;;21.69;51.62
50592;BME280;36548;50.506;30.834;2022-08-01T03:26:52;99615.14;;;21.57;51.62
50592;BME280;36548;50.506;30.834;2022-08-01T03:28:12;99610.92;;;21.69;51.62
50592;BME280;36548;50.506;30.834;2022-08-01T03:29:24;99619.00;;;21.62;51.47
50592;BME280;36548;50.506;30.834;2022-08-01T03:30:40;99617.52;;;21.75;51.65
50592;BME280;36548;50.506;30.834;2022-08-01T03:31:51;99619.41;;;21.74;52.02
50592;BME280;36548;50.506;30.834;2022-08-01T03:33:29;99619.97;;;21.85;51.57
50592;BME280;36548;50.506;30.834;2022-08-01T03:34:38;99617.23;;;22.00;51.26
50592;BME280;36548;50.506;30.834;2022-08-01T03:35:54;99613.42;;;22.30;50.89
50592;BME280;36548;50.506;30.834;2022-08-01T03:37:23;99612.71;;;22.37;50.51
50592;BME280;36548;50.506;30.834;2022-08-01T03:38:42;99611.06;;;22.79;49.69
50592;BME280;36548;50.506;30.834;2022-08-01T03:40:00;99615.05;;;22.98;48.73
50592;BME280;36548;50.506;30.834;2022-08-01T03:41:30;99605.09;;;23.34;47.92
50592;BME280;36548;50.506;30.834;2022-08-01T03:42:52;99607.94;;;23.82;46.40
50592;BME280;36548;50.506;30.834;2022-08-01T03:44:10;99607.93;;;24.10;46.66
50592;BME280;36548;50.506;30.834;2022-08-01T03:45:29;99601.25;;;24.88;45.56
50592;BME280;36548;50.506;30.834;2022-08-01T03:46:46;99612.47;;;25.13;43.46
50592;BME280;36548;50.506;30.834;2022-08-01T03:48:13;99602.98;;;25.56;43.42
50592;BME280;36548;50.506;30.834;2022-08-01T03:49:26;99603.81;;;25.70;43.09
50592;BME280;36548;50.506;30.834;2022-08-01T03:50:44;99600.39;;;26.01;41.46
50592;BME280;36548;50.506;30.834;2022-08-01T03:51:54;99600.59;;;25.93;41.54
50592;BME280;36548;50.506;30.834;2022-08-01T03:53:24;99611.39;;;25.88;41.62
50592;BME280;36548;50.506;30.834;2022-08-01T03:54:47;99597.44;;;25.83;41.36
50592;BME280;36548;50.506;30.834;2022-08-01T03:55:56;99605.95;;;25.55;41.50
50592;BME280;36548;50.506;30.834;2022-08-01T03:57:09;99605.52;;;25.31;42.14
50592;BME280;36548;50.506;30.834;2022-08-01T03:58:23;99606.75;;;25.08;42.01
50592;BME280;36548;50.506;30.834;2022-08-01T03:59:39;99600.84;;;24.98;42.60
50592;BME280;36548;50.506;30.834;2022-08-01T04:00:50;99601.02;;;24.70;42.78
50592;BME280;36548;50.506;30.834;2022-08-01T04:02:07;99598.61;;;24.53;43.47
50592;BME280;36548;50.506;30.834;2022-08-01T04:03:18;99603.14;;;24.26;43.67
50592;BME280;36548;50.506;30.834;2022-08-01T04:04:45;99613.62;;;23.80;44.15
50592;BME280;36548;50.506;30.834;2022-08-01T04:06:05;99605.40;;;23.80;45.05
50592;BME280;36548;50.506;30.834;2022-08-01T04:07:26;99609.31;;;23.64;45.29
50592;BME280;36548;50.506;30.834;2022-08-01T04:08:37;99595.44;;;23.38;45.32
50592;BME280;36548;50.506;30.834;2022-08-01T04:09:53;99596.27;;;23.38;45.69
50592;BME280;36548;50.506;30.834;2022-08-01T04:11:03;99602.92;;;23.29;45.73
50592;BME280;36548;50.506;30.834;2022-08-01T04:12:19;99602.59;;;23.39;45.61
50592;BME280;36548;50.506;30.834;2022-08-01T04:13:28;99607.11;;;23.25;45.82
50592;BME280;36548;50.506;30.834;2022-08-01T04:14:45;99602.87;;;23.22;46.54
50592;BME280;36548;50.506;30.834;2022-08-01T04:15:55;99603.20;;;23.12;46.60
50592;BME280;36548;50.506;30.834;2022-08-01T04:17:10;99595.72;;;23.21;46.49
50592;BME280;36548;50.506;30.834;2022-08-01T04:18:19;99609.89;;;23.10;46.47
50592;BME280;36548;50.506;30.834;2022-08-01T04:19:46;99611.89;;;23.16;46.70
50592;BME280;36548;50.506;30.834;2022-08-01T04:21:02;99604.75;;;23.43;46.52
50592;BME280;36548;50.506;30.834;2022-08-01T04:22:14;99606.39;;;23.38;45.58
50592;BME280;36548;50.506;30.834;2022-08-01T04:23:31;99601.80;;;23.45;45.39
50592;BME280;36548;50.506;30.834;2022-08-01T04:24:46;99600.45;;;23.34;45.89
50592;BME280;36548;50.506;30.834;2022-08-01T04:26:04;99595.56;;;23.58;46.08
50592;BME280;36548;50.506;30.834;2022-08-01T04:27:17;99594.27;;;23.54;45.77
50592;BME280;36548;50.506;30.834;2022-08-01T04:28:37;99592.31;;;23.76;45.60
50592;BME280;36548;50.506;30.834;2022-08-01T04:29:49;99595.46;;;23.73;45.73
50592;BME280;36548;50.506;30.834;2022-08-01T04:31:08;99583.14;;;23.90;44.27
50592;BME280;36548;50.506;30.834;2022-08-01T04:32:18;99600.73;;;23.74;44.37
50592;BME280;36548;50.506;30.834;2022-08-01T04:33:49;99595.05;;;23.76;45.13
50592;BME280;36548;50.506;30.834;2022-08-01T04:35:08;99589.48;;;23.91;44.98
50592;BME280;36548;50.506;30.834;2022-08-01T04:36:23;99591.27;;;23.77;44.90
50592;BME280;36548;50.506;30.834;2022-08-01T04:37:47;99593.35;;;23.75;44.70
50592;BME280;36548;50.506;30.834;2022-08-01T04:39:16;99590.72;;;23.60;45.17
50592;BME280;36548;50.506;30.834;2022-08-01T04:40:29;99590.34;;;23.63;45.37
50592;BME280;36548;50.506;30.834;2022-08-01T04:41:40;99594.75;;;23.64;45.07
50592;BME280;36548;50.506;30.834;2022-08-01T04:42:57;99586.94;;;23.61;45.29
50592;BME280;36548;50.506;30.834;2022-08-01T04:44:07;99592.57;;;23.53;45.30
50592;BME280;36548;50.506;30.834;2022-08-01T04:45:18;99593.64;;;23.52;45.40
50592;BME280;36548;50.506;30.834;2022-08-01T04:46:35;99578.80;;;23.39;45.83
50592;BME280;36548;50.506;30.834;2022-08-01T04:47:45;99582.37;;;23.40;46.02
50592;BME280;36548;50.506;30.834;2022-08-01T04:48:56;99588.54;;;23.48;46.00
50592;BME280;36548;50.506;30.834;2022-08-01T04:50:12;99586.72;;;23.56;45.39
50592;BME280;36548;50.506;30.834;2022-08-01T04:51:23;99589.78;;;23.46;45.76
50592;BME280;36548;50.506;30.834;2022-08-01T04:52:39;99583.31;;;23.54;45.59
50592;BME280;36548;50.506;30.834;2022-08-01T04:53:52;99587.45;;;23.43;45.68
50592;BME280;36548;50.506;30.834;2022-08-01T04:55:08;99584.35;;;23.53;45.40
50592;BME280;36548;50.506;30.834;2022-08-01T04:56:20;99588.83;;;23.32;45.45
50592;BME280;36548;50.506;30.834;2022-08-01T04:57:39;99576.58;;;23.28;45.93
50592;BME280;36548;50.506;30.834;2022-08-01T04:58:53;99595.56;;;23.08;46.42
50592;BME280;36548;50.506;30.834;2022-08-01T05:00:40;99598.94;;;23.10;46.89
50592;BME280;36548;50.506;30.834;2022-08-01T05:01:56;99587.51;;;23.21;46.30
50592;BME280;36548;50.506;30.834;2022-08-01T05:03:07;99598.20;;;23.16;46.37
50592;BME280;36548;50.506;30.834;2022-08-01T05:04:23;99588.26;;;23.37;46.01
50592;BME280;36548;50.506;30.834;2022-08-01T05:05:32;99593.27;;;23.33;46.21
50592;BME280;36548;50.506;30.834;2022-08-01T05:07:00;99594.52;;;23.30;46.05
50592;BME280;36548;50.506;30.834;2022-08-01T05:08:15;99592.47;;;23.68;45.92
50592;BME280;36548;50.506;30.834;2022-08-01T05:09:26;99587.23;;;23.73;45.84
50592;BME280;36548;50.506;30.834;2022-08-01T05:10:42;99579.64;;;24.03;45.06
50592;BME280;36548;50.506;30.834;2022-08-01T05:11:52;99587.00;;;24.03;44.93
50592;BME280;36548;50.506;30.834;2022-08-01T05:13:09;99581.44;;;24.31;44.78
50592;BME280;36548;50.506;30.834;2022-08-01T05:14:19;99587.34;;;24.34;44.42
50592;BME280;36548;50.506;30.834;2022-08-01T05:15:51;99586.56;;;24.47;44.49
50592;BME280;36548;50.506;30.834;2022-08-01T05:17:27;99584.13;;;24.86;43.98
50592;BME280;36548;50.506;30.834;2022-08-01T05:18:36;99583.30;;;24.85;43.40
50592;BME280;36548;50.506;30.834;2022-08-01T05:19:52;99570.66;;;25.11;43.58
50592;BME280;36548;50.506;30.834;2022-08-01T05:21:01;99575.28;;;25.11;42.79
50592;BME280;36548;50.506;30.834;2022-08-01T05:22:28;99581.63;;;25.25;42.65
50592;BME280;36548;50.506;30.834;2022-08-01T05:23:38;99584.19;;;25.40;42.14
50592;BME280;36548;50.506;30.834;2022-08-01T05:24:49;99582.48;;;25.52;42.43
50592;BME280;36548;50.506;30.834;2022-08-01T05:25:58;99580.56;;;25.66;41.61
50592;BME280;36548;50.506;30.834;2022-08-01T05:27:09;99583.53;;;25.58;42.07
50592;BME280;36548;50.506;30.834;2022-08-01T05:28:21;99577.16;;;25.70;42.15
50592;BME280;36548;50.506;30.834;2022-08-01T05:29:31;99585.81;;;25.88;41.46
50592;BME280;36548;50.506;30.834;2022-08-01T05:30:41;99573.49;;;25.97;41.40
50592;BME280;36548;50.506;30.834;2022-08-01T05:31:52;99590.21;;;26.09;41.09
50592;BME280;36548;50.506;30.834;2022-08-01T05:33:02;99588.05;;;26.17;40.55
50592;BME280;36548;50.506;30.834;2022-08-01T05:34:10;99580.39;;;26.26;40.43
50592;BME280;36548;50.506;30.834;2022-08-01T05:35:25;99581.23;;;26.33;39.55
50592;BME280;36548;50.506;30.834;2022-08-01T05:36:38;99578.91;;;26.24;39.86
50592;BME280;36548;50.506;30.834;2022-08-01T05:37:53;99569.80;;;26.30;40.07
50592;BME280;36548;50.506;30.834;2022-08-01T05:39:11;99583.56;;;26.30;40.24
50592;BME280;36548;50.506;30.834;2022-08-01T05:40:39;99580.95;;;26.42;40.00
50592;BME280;36548;50.506;30.834;2022-08-01T05:41:49;99579.19;;;26.54;39.77
50592;BME280;36548;50.506;30.834;2022-08-01T05:42:59;99577.46;;;26.60;39.62
50592;BME280;36548;50.506;30.834;2022-08-01T05:44:09;99590.36;;;26.66;39.59
50592;BME280;36548;50.506;30.834;2022-08-01T05:45:19;99584.85;;;26.66;39.21
50592;BME280;36548;50.506;30.834;2022-08-01T05:46:35;99578.44;;;26.79;39.29
50592;BME280;36548;50.506;30.834;2022-08-01T05:47:45;99585.69;;;26.66;39.21
50592;BME280;36548;50.506;30.834;2022-08-01T05:48:55;99587.16;;;26.76;39.55
50592;BME280;36548;50.506;30.834;2022-08-01T05:50:10;99583.19;;;26.97;38.90
50592;BME280;36548;50.506;30.834;2022-08-01T05:51:19;99586.66;;;26.85;38.80
50592;BME280;36548;50.506;30.834;2022-08-01T05:52:29;99587.68;;;26.91;38.78
50592;BME280;36548;50.506;30.834;2022-08-01T05:53:46;99579.33;;;27.04;38.37
50592;BME280;36548;50.506;30.834;2022-08-01T05:54:56;99585.48;;;27.00;38.43
50592;BME280;36548;50.506;30.834;2022-08-01T05:56:12;99567.58;;;27.16;38.30
50592;BME280;36548;50.506;30.834;2022-08-01T05:57:22;99582.46;;;27.08;38.29
50592;BME280;36548;50.506;30.834;2022-08-01T05:58:37;99570.94;;;27.18;37.81
50592;BME280;36548;50.506;30.834;2022-08-01T05:59:46;99579.05;;;27.13;38.14
50592;BME280;36548;50.506;30.834;2022-08-01T06:01:15;99581.63;;;27.08;38.46
50592;BME280;36548;50.506;30.834;2022-08-01T06:02:30;99576.25;;;27.19;38.05
50592;BME280;36548;50.506;30.834;2022-08-01T06:03:40;99577.77;;;27.15;37.97
50592;BME280;36548;50.506;30.834;2022-08-01T06:04:55;99575.74;;;27.29;37.90
50592;BME280;36548;50.506;30.834;2022-08-01T06:06:05;99578.69;;;27.28;38.04
50592;BME280;36548;50.506;30.834;2022-08-01T06:07:32;99585.66;;;27.37;37.54
50592;BME280;36548;50.506;30.834;2022-08-01T06:08:44;99566.47;;;27.49;37.23
50592;BME280;36548;50.506;30.834;2022-08-01T06:10:00;99575.16;;;27.71;37.24
50592;BME280;36548;50.506;30.834;2022-08-01T06:11:09;99573.06;;;27.66;36.45
50592;BME280;36548;50.506;30.834;2022-08-01T06:12:20;99572.70;;;27.63;36.04
50592;BME280;36548;50.506;30.834;2022-08-01T06:13:31;99569.54;;;27.59;36.00
50592;BME280;36548;50.506;30.834;2022-08-01T06:14:46;99565.66;;;27.67;36.01
50592;BME280;36548;50.506;30.834;2022-08-01T06:15:56;99555.36;;;27.55;36.10
50592;BME280;36548;50.506;30.834;2022-08-01T06:17:07;99564.09;;;27.52;36.49
50592;BME280;36548;50.506;30.834;2022-08-01T06:18:22;99562.50;;;27.63;36.90
50592;BME280;36548;50.506;30.834;2022-08-01T06:19:32;99559.97;;;27.62;36.65
50592;BME280;36548;50.506;30.834;2022-08-01T06:20:42;99564.13;;;27.71;36.36
50592;BME280;36548;50.506;30.834;2022-08-01T06:21:53;99563.20;;;27.77;36.64
50592;BME280;36548;50.506;30.834;2022-08-01T06:23:08;99558.30;;;27.98;35.83
50592;BME280;36548;50.506;30.834;2022-08-01T06:24:19;99553.80;;;27.85;35.38
50592;BME280;36548;50.506;30.834;2022-08-01T06:25:34;99563.13;;;27.84;35.48
50592;BME280;36548;50.506;30.834;2022-08-01T06:26:56;99561.91;;;27.61;35.30
50592;BME280;36548;50.506;30.834;2022-08-01T06:28:23;99563.31;;;27.45;35.66
50592;BME280;36548;50.506;30.834;2022-08-01T06:29:34;99570.35;;;27.41;36.14
50592;BME280;36548;50.506;30.834;2022-08-01T06:30:45;99572.27;;;27.41;35.83
50592;BME280;36548;50.506;30.834;2022-08-01T06:32:00;99556.91;;;27.51;35.90
50592;BME280;36548;50.506;30.834;2022-08-01T06:33:10;99561.02;;;27.42;35.99
50592;BME280;36548;50.506;30.834;2022-08-01T06:34:21;99561.48;;;27.39;35.71
50592;BME280;36548;50.506;30.834;2022-08-01T06:35:31;99562.39;;;27.26;36.07
50592;BME280;36548;50.506;30.834;2022-08-01T06:36:41;99569.05;;;27.18;36.20
50592;BME280;36548;50.506;30.834;2022-08-01T06:37:50;99568.31;;;27.30;36.18
50592;BME280;36548;50.506;30.834;2022-08-01T06:39:12;99564.09;;;27.52;35.84
50592;BME280;36548;50.506;30.834;2022-08-01T06:40:31;99573.28;;;27.46;35.67
50592;BME280;36548;50.506;30.834;2022-08-01T06:41:42;99566.24;;;27.50;35.63
50592;BME280;36548;50.506;30.834;2022-08-01T06:43:19;99544.56;;;27.54;35.63
50592;BME280;36548;50.506;30.834;2022-08-01T06:44:29;99558.87;;;27.44;35.52
50592;BME280;36548;50.506;30.834;2022-08-01T06:45:39;99556.73;;;27.21;36.10
50592;BME280;36548;50.506;30.834;2022-08-01T06:46:51;99557.98;;;27.25;35.92
50592;BME280;36548;50.506;30.834;2022-08-01T06:48:00;99547.30;;;27.35;35.77
50592;BME280;36548;50.506;30.834;2022-08-01T06:49:14;99540.67;;;27.43;35.73